Leasingham, United Kingdom
Current Conditions -  °F | °C
As of 1:50 PM on Tuesday 27 Jan 2015 (Local Time) from EGYD Reporting Station
Broken Clouds Broken Clouds  
Wind Chill: 37°   Ceiling: 2300
Heat Index: 45°   Visibility: 6mi
Dew Point: 41°   Wind: 16mph
Humidity: 87%   Direction: 270°W
Pressure: 30.21"   Gusts: NA
Location:  53.03°N, 0.43°W
Report Text: EGYD 271350Z 27014KT 9999 BKN023 07/05 Q1023 WHT NOSIG
Loading
Personal Weather Stations






























Interactive Weather Map New forecast layout! Learn more

10-Day Weather Forecast

Advertisements
Track Severe Weather on mobile